Time;durP1;ratioP1;P1;durP2;ratioP2;P2;SDS_P1;SDS_P2;PMS_P1;PMS_P2;Temp;Humidity;BMP_temperature;BMP_pressure;BME280_temperature;BME280_humidity;BME280_pressure;Samples;Min_cycle;Max_cycle;Signal;HPM_P1;HPM_P2
2023/07/05 00:00:14;;;;;;;12.38;6.95;;;;;;;17.67;100.00;100389.72;5048045;28;20033;-57
2023/07/05 00:02:39;;;;;;;14.88;7.10;;;;;;;17.52;100.00;100378.34;5048882;28;20033;-58
2023/07/05 00:05:05;;;;;;;14.68;7.65;;;;;;;17.59;100.00;100381.44;5029537;28;20033;-58
2023/07/05 00:07:30;;;;;;;11.65;6.65;;;;;;;17.75;100.00;100390.97;5048536;28;20032;-55
2023/07/05 00:09:55;;;;;;;16.27;8.07;;;;;;;17.54;100.00;100381.75;5048397;28;20021;-57
2023/07/05 00:12:21;;;;;;;17.25;7.75;;;;;;;17.70;100.00;100377.16;5048233;28;20029;-57
2023/07/05 00:14:46;;;;;;;12.85;7.50;;;;;;;17.80;100.00;100357.72;5048394;28;20447;-58
2023/07/05 00:17:12;;;;;;;18.92;7.75;;;;;;;17.77;100.00;100341.09;5029919;28;20029;-54
2023/07/05 00:19:37;;;;;;;11.18;7.35;;;;;;;17.68;100.00;100331.97;5013805;28;20087;-55
2023/07/05 00:22:03;;;;;;;15.63;7.85;;;;;;;17.65;100.00;100319.72;5048493;28;20017;-58
2023/07/05 00:24:28;;;;;;;15.57;7.47;;;;;;;17.64;100.00;100299.34;5047356;28;20033;-55
2023/07/05 00:26:53;;;;;;;17.08;8.60;;;;;;;17.57;100.00;100298.09;5048420;28;20043;-55
2023/07/05 00:29:19;;;;;;;15.25;7.57;;;;;;;17.59;100.00;100290.88;5048699;28;20028;-56
2023/07/05 00:31:44;;;;;;;16.90;8.13;;;;;;;17.59;100.00;100280.22;5047137;28;20038;-57
2023/07/05 00:34:09;;;;;;;15.82;8.05;;;;;;;17.51;100.00;100266.59;5047789;28;20124;-56
2023/07/05 00:36:35;;;;;;;16.75;8.07;;;;;;;17.38;100.00;100251.50;5047872;28;20028;-56
2023/07/05 00:39:00;;;;;;;17.05;8.52;;;;;;;17.26;100.00;100231.09;5063345;28;20461;-56
2023/07/05 00:41:25;;;;;;;16.23;8.25;;;;;;;17.27;100.00;100215.00;5026878;28;20028;-56
2023/07/05 00:43:51;;;;;;;20.40;8.07;;;;;;;17.34;100.00;100231.38;5027988;28;20021;-57
2023/07/05 00:46:22;;;;;;;16.77;8.00;;;;;;;17.41;100.00;100230.00;5026978;28;20540;-57
2023/07/05 00:48:50;;;;;;;20.90;7.78;;;;;;;17.50;100.00;100211.63;5027628;28;20032;-56
2023/07/05 00:51:31;;;;;;;19.47;8.23;;;;;;;17.39;100.00;100193.75;5034903;28;20127;-57
2023/07/05 00:53:59;;;;;;;15.18;8.27;;;;;;;17.42;100.00;100199.72;5029960;28;20029;-57
2023/07/05 00:56:28;;;;;;;16.30;7.95;;;;;;;17.51;100.00;100197.34;5047255;28;20115;-56
2023/07/05 00:58:54;;;;;;;15.90;9.10;;;;;;;17.48;100.00;100195.75;5063023;28;20024;-57
2023/07/05 01:01:19;;;;;;;16.65;9.85;;;;;;;17.50;100.00;100195.63;5046482;28;20082;-57
2023/07/05 01:03:49;;;;;;;17.38;9.98;;;;;;;17.55;100.00;100193.50;5047022;28;20439;-58
2023/07/05 01:06:14;;;;;;;15.70;9.30;;;;;;;17.56;100.00;100192.53;5045955;28;20393;-58
2023/07/05 01:08:40;;;;;;;14.65;8.57;;;;;;;17.43;100.00;100184.59;5047599;28;20021;-54
2023/07/05 01:11:10;;;;;;;12.15;7.95;;;;;;;17.41;100.00;100182.06;5029693;28;20104;-56
2023/07/05 01:13:54;;;;;;;15.10;7.10;;;;;;;17.46;100.00;100188.84;5062571;28;20039;-56
2023/07/05 01:16:48;;;;;;;16.08;6.90;;;;;;;17.55;100.00;100183.69;5037254;28;20055;-58
2023/07/05 01:19:20;;;;;;;10.50;6.07;;;;;;;17.48;100.00;100189.56;5049177;28;20028;-59
2023/07/05 01:22:12;;;;;;;10.32;5.95;;;;;;;17.49;100.00;100209.94;5067890;28;20036;-55
2023/07/05 01:24:56;;;;;;;8.85;4.80;;;;;;;17.46;100.00;100191.50;5034445;28;20063;-59
2023/07/05 01:27:44;;;;;;;7.03;4.18;;;;;;;17.52;100.00;100185.75;5047565;28;20421;-56
2023/07/05 01:30:51;;;;;;;4.07;3.00;;;;;;;17.63;100.00;100184.91;5037187;28;20087;-59
2023/07/05 01:33:36;;;;;;;7.15;2.80;;;;;;;17.64;100.00;100186.63;5005435;22;20047;-58
2023/07/05 01:36:02;;;;;;;3.28;2.38;;;;;;;17.59;100.00;100173.66;4925484;29;20565;-58
2023/07/05 01:38:28;;;;;;;5.63;2.30;;;;;;;17.58;100.00;100179.94;4927516;29;20052;-59
2023/07/05 01:41:00;;;;;;;5.57;2.40;;;;;;;17.57;100.00;100180.06;4927228;29;20508;-58
2023/07/05 01:43:26;;;;;;;4.32;1.95;;;;;;;17.67;100.00;100187.25;4926901;29;20531;-59
2023/07/05 01:46:19;;;;;;;4.53;1.90;;;;;;;17.64;100.00;100195.47;4925548;29;20020;-57
2023/07/05 01:49:03;;;;;;;3.95;2.20;;;;;;;17.46;100.00;100188.84;4926878;29;20031;-58
2023/07/05 01:51:41;;;;;;;3.58;2.00;;;;;;;17.22;100.00;100203.00;4926530;29;20487;-56
2023/07/05 01:54:12;;;;;;;6.70;2.20;;;;;;;17.41;100.00;100198.03;4912463;29;20486;-58
2023/07/05 01:56:51;;;;;;;6.15;1.92;;;;;;;17.50;100.00;100198.31;4928885;29;20547;-58
2023/07/05 01:59:18;;;;;;;;;;;;;;;17.25;100.00;100208.09;4929423;29;20793;-56
2023/07/05 02:01:44;;;;;;;5.88;2.10;;;;;;;17.25;100.00;100203.59;4929655;28;19915;-56
2023/07/05 02:04:11;;;;;;;6.25;2.85;;;;;;;17.27;100.00;100220.31;4930474;29;20036;-57
2023/07/05 02:06:37;;;;;;;11.07;2.35;;;;;;;17.18;100.00;100210.34;4929285;29;20028;-58
2023/07/05 02:09:02;;;;;;;13.10;2.65;;;;;;;17.22;100.00;100214.47;4930561;28;20162;-57
2023/07/05 02:11:28;;;;;;;7.47;2.20;;;;;;;17.25;100.00;100208.09;4930227;28;20119;-58
2023/07/05 02:13:53;;;;;;;13.45;2.50;;;;;;;16.87;100.00;100200.06;4930452;28;20066;-58
2023/07/05 02:16:19;;;;;;;10.02;2.50;;;;;;;16.75;100.00;100207.09;4928920;28;20042;-57
2023/07/05 02:18:44;;;;;;;4.53;2.55;;;;;;;16.88;100.00;100214.19;4930543;28;20028;-57
2023/07/05 02:21:10;;;;;;;7.50;2.65;;;;;;;16.75;100.00;100201.78;4930961;29;20278;-54
2023/07/05 02:23:35;;;;;;;9.57;2.42;;;;;;;16.68;100.00;100198.69;4930492;29;20099;-58
2023/07/05 02:26:04;;;;;;;6.03;2.25;;;;;;;16.75;100.00;100195.59;4930334;29;20356;-54
2023/07/05 02:28:30;;;;;;;13.23;3.22;;;;;;;16.52;100.00;100200.69;4945380;29;20039;-57
2023/07/05 02:30:55;;;;;;;7.45;2.85;;;;;;;16.75;100.00;100200.91;4948653;28;20163;-55
2023/07/05 02:33:20;;;;;;;7.53;3.25;;;;;;;16.56;100.00;100186.25;4948998;28;20515;-58
2023/07/05 02:35:46;;;;;;;7.35;2.97;;;;;;;16.71;100.00;100191.44;4939747;28;20036;-56
2023/07/05 02:38:11;;;;;;;12.50;4.13;;;;;;;16.50;100.00;100187.50;4930518;29;20079;-59
2023/07/05 02:40:36;;;;;;;7.55;3.42;;;;;;;16.35;100.00;100200.09;4929803;28;20036;-56
2023/07/05 02:43:02;;;;;;;7.65;4.28;;;;;;;16.52;100.00;100201.56;4929564;29;20149;-59
2023/07/05 02:45:28;;;;;;;7.65;4.10;;;;;;;16.33;100.00;100188.69;4930170;28;20020;-54
2023/07/05 02:47:53;;;;;;;7.45;3.53;;;;;;;16.35;100.00;100184.13;4929282;28;20051;-58
2023/07/05 02:50:20;;;;;;;8.70;3.78;;;;;;;16.40;100.00;100197.94;4930995;29;20114;-57
2023/07/05 02:52:46;;;;;;;5.22;3.33;;;;;;;16.21;100.00;100202.81;4929739;28;20582;-55
2023/07/05 02:55:11;;;;;;;6.95;3.28;;;;;;;16.25;100.00;100191.00;4929463;29;20115;-58
2023/07/05 02:57:36;;;;;;;5.03;2.80;;;;;;;16.11;100.00;100184.88;4929229;29;20036;-55
2023/07/05 03:00:08;;;;;;;4.47;3.17;;;;;;;16.18;100.00;100182.63;4929557;28;20107;-58
2023/07/05 03:02:34;;;;;;;8.38;3.60;;;;;;;16.20;100.00;100182.53;4930050;28;20027;-57
2023/07/05 03:05:09;;;;;;;7.30;3.25;;;;;;;16.26;100.00;100184.75;4929333;28;20043;-55
2023/07/05 03:07:35;;;;;;;7.18;3.60;;;;;;;16.04;100.00;100183.53;4930080;29;20495;-57
2023/07/05 03:10:00;;;;;;;6.03;3.70;;;;;;;15.84;100.00;100175.09;4929463;29;20032;-57
2023/07/05 03:12:26;;;;;;;5.50;3.20;;;;;;;15.66;100.00;100175.34;4935604;29;20031;-57
2023/07/05 03:14:52;;;;;;;5.80;3.42;;;;;;;15.92;100.00;100187.84;4948376;28;20115;-57
2023/07/05 03:17:17;;;;;;;7.28;3.63;;;;;;;15.96;100.00;100164.59;4937075;28;20031;-55
2023/07/05 03:19:43;;;;;;;6.22;3.35;;;;;;;15.98;100.00;100163.56;4929895;29;20024;-56
2023/07/05 03:22:08;;;;;;;5.18;3.25;;;;;;;15.88;100.00;100189.03;4928740;28;20020;-54
2023/07/05 03:24:33;;;;;;;6.32;3.30;;;;;;;15.84;100.00;100145.88;4929787;28;20024;-53
2023/07/05 03:26:59;;;;;;;6.38;3.63;;;;;;;15.87;100.00;100156.28;4927651;28;20178;-55
2023/07/05 03:29:24;;;;;;;10.75;3.28;;;;;;;15.84;100.00;100159.16;4928583;28;20027;-58
2023/07/05 03:31:49;;;;;;;7.72;3.60;;;;;;;15.76;100.00;100157.03;4929612;29;20503;-54
2023/07/05 03:34:15;;;;;;;6.47;3.55;;;;;;;15.90;100.00;100145.44;4916717;28;20101;-56
2023/07/05 03:36:41;;;;;;;4.47;2.95;;;;;;;15.82;100.00;100161.06;4910725;29;20059;-61
2023/07/05 03:39:06;;;;;;;8.25;3.63;;;;;;;15.87;100.00;100158.94;4909710;28;20052;-58
2023/07/05 03:41:31;;;;;;;7.28;2.88;;;;;;;15.83;100.00;100143.34;4915553;29;20032;-57
2023/07/05 03:44:00;;;;;;;8.77;3.30;;;;;;;15.82;100.00;100145.13;4929194;29;20459;-57
2023/07/05 03:46:26;;;;;;;10.60;3.30;;;;;;;15.85;100.00;100136.09;4929167;29;20051;-58
2023/07/05 03:48:51;;;;;;;7.68;3.22;;;;;;;15.95;100.00;100134.50;4928677;29;20204;-58
2023/07/05 03:51:20;;;;;;;6.05;3.40;;;;;;;15.81;100.00;100134.59;4930391;28;20028;-52
2023/07/05 03:53:53;;;;;;;8.80;3.50;;;;;;;15.89;100.00;100138.44;4927333;28;20042;-59
2023/07/05 03:56:19;;;;;;;6.10;3.42;;;;;;;15.91;100.00;100135.69;4929976;28;20480;-56
2023/07/05 03:58:44;;;;;;;5.53;3.50;;;;;;;16.01;100.00;100138.59;4929088;29;20033;-55
2023/07/05 04:01:30;;;;;;;10.20;3.50;;;;;;;15.85;100.00;100144.06;4928455;29;20119;-53
2023/07/05 04:03:58;;;;;;;9.55;3.30;;;;;;;15.70;100.00;100143.28;4928821;28;20044;-54
2023/07/05 04:06:26;;;;;;;9.10;4.00;;;;;;;15.79;100.00;100147.97;4928594;28;20043;-55
2023/07/05 04:08:51;;;;;;;7.72;3.47;;;;;;;15.60;100.00;100146.56;4928491;29;20454;-55
2023/07/05 04:11:17;;;;;;;7.65;3.00;;;;;;;15.67;100.00;100157.63;4928798;29;20020;-59
2023/07/05 04:13:44;;;;;;;7.30;3.13;;;;;;;15.41;100.00;100166.34;4928231;29;20028;-57
2023/07/05 04:16:14;;;;;;;5.70;2.30;;;;;;;15.32;100.00;100166.94;4927299;29;20035;-58
2023/07/05 04:18:41;;;;;;;9.27;2.72;;;;;;;15.08;100.00;100154.31;4927371;28;20545;-57
2023/07/05 04:21:07;;;;;;;5.70;2.30;;;;;;;14.80;100.00;100163.16;4932378;28;20031;-58
2023/07/05 04:23:33;;;;;;;7.45;2.40;;;;;;;14.90;100.00;100181.06;4928687;29;20501;-58
2023/07/05 04:26:00;;;;;;;6.78;2.65;;;;;;;14.92;100.00;100178.31;4928870;29;20102;-57
2023/07/05 04:28:28;;;;;;;3.80;2.00;;;;;;;14.94;100.00;100180.88;4928330;29;20109;-58
2023/07/05 04:30:53;;;;;;;3.70;1.25;;;;;;;14.88;100.00;100176.81;4928096;29;20058;-56
2023/07/05 04:33:18;;;;;;;2.70;1.40;;;;;;;14.89;100.00;100182.03;4928882;29;20075;-55
2023/07/05 04:35:49;;;;;;;3.35;1.50;;;;;;;14.89;100.00;100183.81;4928121;29;20644;-58
2023/07/05 04:38:14;;;;;;;8.18;1.90;;;;;;;14.75;100.00;100198.75;4928570;29;20055;-57
2023/07/05 04:40:40;;;;;;;6.57;1.48;;;;;;;14.96;100.00;100184.28;4927005;29;20150;-58
2023/07/05 04:43:05;;;;;;;7.80;2.17;;;;;;;14.99;100.00;100173.50;4927996;29;20028;-55
2023/07/05 04:45:31;;;;;;;8.05;1.80;;;;;;;15.05;100.00;100165.13;4928180;29;20181;-57
2023/07/05 04:47:56;;;;;;;7.30;2.10;;;;;;;15.08;100.00;100172.88;4928540;29;20609;-56
2023/07/05 04:50:21;;;;;;;7.57;2.05;;;;;;;15.10;100.00;100172.78;4928277;29;20016;-57
2023/07/05 04:52:47;;;;;;;8.70;2.50;;;;;;;15.05;100.00;100183.69;4928947;29;20032;-55
2023/07/05 04:55:12;;;;;;;7.68;2.08;;;;;;;14.97;100.00;100192.16;4933451;28;20034;-56
2023/07/05 04:57:37;;;;;;;8.70;2.53;;;;;;;14.97;100.00;100189.50;4928218;29;20039;-56
2023/07/05 05:00:03;;;;;;;14.70;2.70;;;;;;;14.91;100.00;100203.16;4927920;29;20035;-57
2023/07/05 05:02:28;;;;;;;11.40;2.95;;;;;;;15.02;100.00;100190.03;4927880;29;20035;-55
2023/07/05 05:04:54;;;;;;;10.27;2.60;;;;;;;15.21;100.00;100185.38;4927281;28;20048;-59
2023/07/05 05:07:19;;;;;;;8.55;2.40;;;;;;;14.96;100.00;100179.81;4927402;28;20027;-55
2023/07/05 05:09:44;;;;;;;12.10;2.45;;;;;;;15.01;100.00;100187.50;4926961;29;20039;-60
2023/07/05 05:12:10;;;;;;;13.48;2.60;;;;;;;15.09;100.00;100174.59;4928057;29;20032;-56
2023/07/05 05:14:35;;;;;;;11.40;2.42;;;;;;;15.18;100.00;100182.91;4925668;29;20114;-55
2023/07/05 05:17:01;;;;;;;10.77;2.47;;;;;;;15.04;100.00;100179.34;4928180;29;20024;-59
2023/07/05 05:19:26;;;;;;;6.13;2.38;;;;;;;15.07;100.00;100181.78;4927255;28;20444;-56
2023/07/05 05:21:51;;;;;;;10.10;2.72;;;;;;;14.93;100.00;100169.41;4925357;29;20063;-57
2023/07/05 05:24:17;;;;;;;10.45;2.70;;;;;;;14.95;100.00;100178.13;4928550;29;20031;-58
2023/07/05 05:26:42;;;;;;;7.97;2.60;;;;;;;14.96;100.00;100182.47;4927246;29;20183;-58
2023/07/05 05:29:07;;;;;;;7.35;2.20;;;;;;;14.91;100.00;100188.06;4928812;29;20035;-59
2023/07/05 05:31:33;;;;;;;13.23;2.75;;;;;;;14.58;100.00;100223.66;4930765;29;20463;-56
2023/07/05 05:33:58;;;;;;;9.10;2.17;;;;;;;14.18;100.00;100218.94;4929880;29;20032;-58
2023/07/05 05:36:24;;;;;;;10.38;2.22;;;;;;;13.67;100.00;100248.38;4930662;29;20055;-57
2023/07/05 05:38:49;;;;;;;11.88;2.80;;;;;;;13.55;100.00;100240.19;4930348;29;20450;-54
2023/07/05 05:41:15;;;;;;;10.15;2.78;;;;;;;13.27;100.00;100242.53;4930146;29;20472;-57
2023/07/05 05:43:41;;;;;;;19.25;2.80;;;;;;;13.26;100.00;100240.81;4917129;29;20078;-57
2023/07/05 05:46:07;;;;;;;12.88;2.45;;;;;;;12.95;100.00;100276.00;4912083;28;20391;-54
2023/07/05 05:48:33;;;;;;;5.68;1.63;;;;;;;12.79;100.00;100247.72;4910341;29;20161;-54
2023/07/05 05:50:58;;;;;;;6.07;1.85;;;;;;;12.72;100.00;100231.34;4924759;29;20023;-54
2023/07/05 05:53:24;;;;;;;13.07;1.88;;;;;;;12.63;100.00;100267.03;4930824;28;20035;-54
2023/07/05 05:55:49;;;;;;;14.15;2.05;;;;;;;12.53;100.00;100241.16;4929164;29;20023;-56
2023/07/05 05:58:15;;;;;;;16.30;2.08;;;;;;;12.49;100.00;100237.81;4947598;29;20035;-57
2023/07/05 06:00:40;;;;;;;11.27;2.17;;;;;;;12.52;100.00;100232.38;4949271;28;20070;-60
2023/07/05 06:03:06;;;;;;;16.38;2.58;;;;;;;12.40;100.00;100225.94;4946783;28;20027;-54
2023/07/05 06:05:32;;;;;;;11.32;1.27;;;;;;;12.46;100.00;100211.56;4929666;28;20067;-55
2023/07/05 06:07:57;;;;;;;9.43;2.28;;;;;;;12.45;100.00;100212.50;4927220;29;20456;-56
2023/07/05 06:10:23;;;;;;;12.55;2.28;;;;;;;12.46;100.00;100215.06;4926960;29;20036;-54
2023/07/05 06:12:48;;;;;;;11.15;2.10;;;;;;;12.49;100.00;100198.19;4930143;28;20031;-53
2023/07/05 06:15:14;;;;;;;19.80;2.17;;;;;;;12.33;100.00;100206.91;4926686;29;20494;-57
2023/07/05 06:17:40;;;;;;;13.15;1.75;;;;;;;12.23;100.00;100203.03;4927426;28;20028;-51
2023/07/05 06:20:06;;;;;;;10.98;1.90;;;;;;;12.38;100.00;100186.38;4928964;28;20118;-56
2023/07/05 06:22:33;;;;;;;11.02;2.28;;;;;;;12.49;100.00;100219.31;4929099;28;20681;-55
2023/07/05 06:24:58;;;;;;;16.73;2.92;;;;;;;12.30;100.00;100228.22;4929536;28;20024;-57
2023/07/05 06:27:23;;;;;;;20.63;2.72;;;;;;;12.47;100.00;100218.56;4930468;28;20054;-55
2023/07/05 06:29:49;;;;;;;17.38;4.18;;;;;;;12.51;100.00;100215.69;4929742;29;20032;-56
2023/07/05 06:32:14;;;;;;;21.02;3.22;;;;;;;12.65;100.00;100219.38;4927372;29;20115;-55
2023/07/05 06:34:39;;;;;;;14.65;3.17;;;;;;;12.64;100.00;100228.22;4930025;28;20158;-56
2023/07/05 06:37:05;;;;;;;9.55;2.85;;;;;;;12.72;100.00;100235.75;4929125;29;20038;-56
2023/07/05 06:39:30;;;;;;;11.18;2.97;;;;;;;12.87;100.00;100218.25;4929548;29;20070;-54
2023/07/05 06:41:56;;;;;;;17.90;3.60;;;;;;;12.96;100.00;100238.03;4928667;29;20332;-56
2023/07/05 06:44:21;;;;;;;17.98;3.60;;;;;;;12.80;100.00;100253.88;4927351;29;20450;-58
2023/07/05 06:46:46;;;;;;;22.58;3.60;;;;;;;12.91;100.00;100245.38;4928372;29;20028;-55
2023/07/05 06:49:12;;;;;;;23.27;4.13;;;;;;;12.95;100.00;100258.34;4929288;29;20586;-51
2023/07/05 06:51:37;;;;;;;18.48;3.08;;;;;;;12.91;100.00;100267.38;4927648;29;20031;-58
2023/07/05 06:54:03;;;;;;;19.90;4.03;;;;;;;13.00;100.00;100288.03;4928508;28;20110;-55
2023/07/05 06:56:28;;;;;;;18.48;4.32;;;;;;;13.13;100.00;100272.38;4928688;29;20396;-52
2023/07/05 06:58:53;;;;;;;21.65;4.20;;;;;;;13.15;100.00;100274.94;4927005;28;20448;-52
2023/07/05 07:01:19;;;;;;;19.27;3.88;;;;;;;12.97;100.00;100284.69;4929276;29;20062;-51
2023/07/05 07:03:44;;;;;;;20.70;4.28;;;;;;;12.90;100.00;100302.69;4928633;28;20109;-58
2023/07/05 07:06:10;;;;;;;15.25;3.85;;;;;;;12.82;100.00;100291.69;4946211;29;20162;-59
2023/07/05 07:08:38;;;;;;;16.88;3.17;;;;;;;12.79;100.00;100287.38;4947977;28;20479;-53
2023/07/05 07:11:05;;;;;;;16.33;3.50;;;;;;;12.89;100.00;100301.81;4932340;28;20113;-55
2023/07/05 07:13:31;;;;;;;18.38;3.70;;;;;;;12.75;100.00;100363.38;4909114;29;20225;-55
2023/07/05 07:16:08;;;;;;;22.85;4.10;;;;;;;12.87;100.00;100324.00;4922305;29;20024;-55
2023/07/05 07:18:36;;;;;;;14.05;3.45;;;;;;;13.01;100.00;100339.16;4927463;29;20035;-55
2023/07/05 07:21:01;;;;;;;19.70;4.47;;;;;;;12.95;100.00;100342.97;4926706;29;20023;-59
2023/07/05 07:23:27;;;;;;;20.80;4.32;;;;;;;13.09;100.00;100349.31;4937296;28;20399;-54
2023/07/05 07:26:07;;;;;;;21.42;3.67;;;;;;;13.00;100.00;100415.00;4926339;29;20070;-55
2023/07/05 07:28:33;;;;;;;19.52;3.75;;;;;;;13.06;100.00;100392.66;4925882;29;20110;-60
2023/07/05 07:31:08;;;;;;;15.98;4.05;;;;;;;13.11;100.00;100369.47;4925550;29;20441;-56
2023/07/05 07:33:33;;;;;;;16.95;3.53;;;;;;;13.06;100.00;100395.28;4924152;29;20071;-56
2023/07/05 07:36:07;;;;;;;12.60;3.58;;;;;;;13.07;100.00;100397.03;4926592;29;20384;-54
2023/07/05 07:38:32;;;;;;;9.68;3.30;;;;;;;13.01;100.00;100410.56;4924513;29;20404;-54
2023/07/05 07:40:58;;;;;;;16.08;3.58;;;;;;;13.10;100.00;100410.06;4926516;28;20036;-59
2023/07/05 07:43:23;;;;;;;11.52;3.00;;;;;;;13.19;100.00;100472.25;4927286;29;20476;-57
2023/07/05 07:45:48;;;;;;;16.85;4.43;;;;;;;13.21;100.00;100454.50;4927426;28;20137;-55
2023/07/05 07:48:14;;;;;;;12.88;3.90;;;;;;;13.24;100.00;100459.63;4928980;29;20039;-58
2023/07/05 07:50:39;;;;;;;15.05;3.58;;;;;;;13.29;100.00;100477.91;4927541;29;20016;-57
2023/07/05 07:53:04;;;;;;;17.35;3.95;;;;;;;13.31;100.00;100454.03;4927667;29;20488;-53
2023/07/05 07:55:30;;;;;;;13.18;2.97;;;;;;;13.20;100.00;100515.41;4926420;28;20036;-55
2023/07/05 07:57:55;;;;;;;10.23;2.63;;;;;;;12.97;100.00;100477.75;4925955;28;20073;-60
2023/07/05 08:00:21;;;;;;;12.85;2.90;;;;;;;13.04;100.00;100479.19;4924773;28;20028;-60
2023/07/05 08:02:46;;;;;;;9.45;3.53;;;;;;;13.10;100.00;100494.72;4924224;28;20078;-58
2023/07/05 08:05:15;;;;;;;9.27;2.95;;;;;;;13.11;100.00;100477.94;4925301;29;20027;-60
2023/07/05 08:07:41;;;;;;;14.63;2.92;;;;;;;13.07;100.00;100497.53;4935341;29;20027;-57
2023/07/05 08:10:08;;;;;;;10.50;3.50;;;;;;;13.20;100.00;100499.53;4927925;28;20372;-60
2023/07/05 08:12:34;;;;;;;9.02;3.83;;;;;;;13.12;100.00;100500.78;4925214;29;20484;-56
2023/07/05 08:15:00;;;;;;;13.77;3.63;;;;;;;13.01;100.00;100526.94;4926914;28;20020;-57
2023/07/05 08:17:25;;;;;;;18.90;4.18;;;;;;;12.94;100.00;100542.22;4926055;28;20486;-59
2023/07/05 08:19:50;;;;;;;17.17;3.85;;;;;;;12.95;100.00;100541.31;4923251;28;20024;-63
2023/07/05 08:22:16;;;;;;;19.95;4.47;;;;;;;13.09;100.00;100548.56;4925937;29;20117;-58
2023/07/05 08:24:41;;;;;;;21.52;4.80;;;;;;;13.08;100.00;100578.59;4923745;28;20385;-56
2023/07/05 08:27:07;;;;;;;19.88;4.60;;;;;;;13.25;100.00;100559.22;4925256;28;20015;-60
2023/07/05 08:29:32;;;;;;;20.50;4.80;;;;;;;13.46;100.00;100569.66;4917687;29;20023;-57
2023/07/05 08:31:57;;;;;;;17.20;4.20;;;;;;;13.35;100.00;100607.28;4924670;29;20040;-60
2023/07/05 08:34:23;;;;;;;9.82;3.30;;;;;;;13.09;100.00;100588.22;4926710;28;20020;-58
2023/07/05 08:36:48;;;;;;;11.10;3.30;;;;;;;12.85;100.00;100619.34;4926126;29;20122;-61
2023/07/05 08:39:14;;;;;;;15.95;3.78;;;;;;;12.74;100.00;100620.72;4927463;28;20411;-57
2023/07/05 08:41:43;;;;;;;14.80;3.50;;;;;;;12.73;100.00;100639.28;4925069;28;20032;-59
2023/07/05 08:44:22;;;;;;;22.08;4.15;;;;;;;12.88;100.00;100624.50;4917292;28;20093;-58
2023/07/05 08:47:07;;;;;;;18.38;3.45;;;;;;;12.82;100.00;100604.50;4932518;29;20476;-58
2023/07/05 08:49:36;;;;;;;17.52;3.90;;;;;;;12.79;100.00;100640.81;4937381;28;20335;-61
2023/07/05 08:52:02;;;;;;;;;;;;;;;12.63;100.00;100641.50;4924475;29;20074;-59
2023/07/05 08:54:32;;;;;;;14.23;3.20;;;;;;;12.52;100.00;100620.84;4925913;29;20390;-58
2023/07/05 08:57:04;;;;;;;8.82;2.72;;;;;;;12.62;100.00;100643.28;4924513;28;20312;-56
2023/07/05 08:59:34;;;;;;;11.02;2.55;;;;;;;12.68;100.00;100660.66;4925819;29;20055;-58
2023/07/05 09:02:00;;;;;;;15.15;3.20;;;;;;;12.93;100.00;100656.00;4925088;29;20024;-61
2023/07/05 09:04:34;;;;;;;11.32;3.15;;;;;;;13.17;100.00;100654.00;4923873;29;20303;-58
2023/07/05 09:07:33;;;;;;;15.70;3.78;;;;;;;13.64;100.00;100670.31;4924585;29;20020;-57
2023/07/05 09:10:07;;;;;;;17.80;4.38;;;;;;;14.00;100.00;100689.75;4930033;28;20075;-58
2023/07/05 09:12:48;;;;;;;21.50;4.45;;;;;;;14.20;100.00;100698.44;4926956;28;20081;-59
2023/07/05 09:15:23;;;;;;;20.50;4.05;;;;;;;14.58;100.00;100684.13;4931153;28;20032;-60
2023/07/05 09:17:53;;;;;;;31.05;4.82;;;;;;;14.77;100.00;100686.63;4925571;29;20028;-57
2023/07/05 09:20:48;;;;;;;17.15;3.53;;;;;;;14.95;100.00;100713.13;4924288;28;20046;-58
2023/07/05 09:23:19;;;;;;;12.80;3.15;;;;;;;15.08;100.00;100703.56;4924859;29;20078;-59
2023/07/05 09:25:46;;;;;;;12.77;3.47;;;;;;;15.07;100.00;100712.47;4930065;29;20103;-58
2023/07/05 09:28:43;;;;;;;19.30;3.88;;;;;;;15.14;100.00;100753.63;4922706;29;20511;-58
2023/07/05 09:31:12;;;;;;;17.70;3.22;;;;;;;15.16;100.00;100775.66;4931044;28;20602;-57
2023/07/05 09:33:44;;;;;;;18.58;2.97;;;;;;;15.29;100.00;100751.06;4923882;28;20032;-56
2023/07/05 09:36:29;;;;;;;17.55;3.92;;;;;;;15.63;100.00;100746.53;4925024;29;20015;-60
2023/07/05 09:39:04;;;;;;;21.05;3.42;;;;;;;15.95;100.00;100750.09;4921381;28;20039;-60
2023/07/05 09:41:46;;;;;;;16.77;3.45;;;;;;;16.32;100.00;100753.28;4936693;29;20107;-60
2023/07/05 09:44:11;;;;;;;24.08;4.43;;;;;;;16.60;100.00;100785.31;4921566;29;20427;-60
2023/07/05 09:46:38;;;;;;;16.83;3.33;;;;;;;16.85;100.00;100771.38;4924260;29;20058;-61
2023/07/05 09:49:11;;;;;;;16.42;3.17;;;;;;;17.08;100.00;100770.91;4923215;29;20016;-57
2023/07/05 09:51:38;;;;;;;11.27;3.17;;;;;;;17.38;100.00;100781.44;4924995;28;20066;-56
2023/07/05 09:54:07;;;;;;;23.83;4.10;;;;;;;17.09;100.00;100780.59;4936356;28;20101;-57
2023/07/05 09:56:34;;;;;;;15.52;3.40;;;;;;;16.59;100.00;100789.81;4924150;29;20038;-58
2023/07/05 09:59:17;;;;;;;11.90;3.58;;;;;;;16.52;100.00;100788.44;4923881;28;20074;-62
2023/07/05 10:01:45;;;;;;;12.57;3.28;;;;;;;16.14;100.00;100787.94;4924096;29;20031;-60
2023/07/05 10:04:11;;;;;;;17.67;4.40;;;;;;;16.17;100.00;100802.88;4923085;29;20070;-57
2023/07/05 10:06:41;;;;;;;15.45;3.22;;;;;;;16.34;100.00;100798.38;4925782;29;20091;-58
2023/07/05 10:09:19;;;;;;;22.25;3.60;;;;;;;16.38;100.00;100808.72;4920937;29;20027;-59
2023/07/05 10:11:57;;;;;;;14.65;3.35;;;;;;;16.49;100.00;100812.53;4925946;28;20135;-55
2023/07/05 10:14:29;;;;;;;20.92;3.58;;;;;;;16.32;100.00;100838.34;4923133;28;20039;-61
2023/07/05 10:16:56;;;;;;;14.07;3.60;;;;;;;15.95;100.00;100820.03;4927242;29;20688;-56
2023/07/05 10:19:26;;;;;;;16.45;3.25;;;;;;;15.68;100.00;100828.59;4928029;29;20545;-61
2023/07/05 10:21:55;;;;;;;23.77;3.88;;;;;;;15.82;100.00;100841.13;4928530;29;20100;-57
2023/07/05 10:24:21;;;;;;;14.60;3.33;;;;;;;16.26;100.00;100860.81;4928486;29;20023;-60
2023/07/05 10:26:51;;;;;;;19.08;3.47;;;;;;;16.73;100.00;100854.59;4928630;29;20408;-57
2023/07/05 10:29:20;;;;;;;11.75;2.97;;;;;;;16.88;100.00;100861.66;4934849;28;20499;-60
2023/07/05 10:31:54;;;;;;;7.43;3.00;;;;;;;17.30;100.00;100853.84;4928425;29;20031;-59
2023/07/05 10:34:23;;;;;;;13.27;3.30;;;;;;;17.23;100.00;100936.84;4923026;28;20078;-58
2023/07/05 10:36:49;;;;;;;9.65;2.63;;;;;;;17.34;100.00;100889.09;4929235;28;20051;-58
2023/07/05 10:39:23;;;;;;;12.73;2.80;;;;;;;17.03;100.00;100886.50;4927014;29;20294;-59
2023/07/05 10:41:56;;;;;;;11.90;3.28;;;;;;;16.96;100.00;100898.47;4928964;28;20032;-52
2023/07/05 10:44:24;;;;;;;8.90;2.65;;;;;;;17.30;100.00;100908.88;4927967;28;20024;-59
2023/07/05 10:46:50;;;;;;;9.57;3.17;;;;;;;17.35;100.00;100913.94;4928120;29;20103;-58
2023/07/05 10:49:17;;;;;;;11.20;3.05;;;;;;;17.28;100.00;100938.28;4929288;29;20031;-60
2023/07/05 10:51:50;;;;;;;12.05;2.70;;;;;;;17.34;100.00;100902.41;4928319;29;20055;-58
2023/07/05 10:54:28;;;;;;;24.40;3.30;;;;;;;17.58;100.00;100936.47;4928440;29;20439;-58
2023/07/05 10:56:54;;;;;;;8.00;2.20;;;;;;;17.92;100.00;100923.72;4927292;29;20376;-59
2023/07/05 10:59:30;;;;;;;10.68;2.55;;;;;;;18.00;100.00;100923.19;4928089;29;20135;-55
2023/07/05 11:02:08;;;;;;;7.55;2.42;;;;;;;17.79;100.00;100922.78;4928276;29;20028;-56
2023/07/05 11:04:34;;;;;;;16.80;2.92;;;;;;;17.67;100.00;100938.56;4927534;29;20023;-53
2023/07/05 11:07:06;;;;;;;13.82;2.95;;;;;;;17.63;100.00;100947.72;4925370;28;20023;-56
2023/07/05 11:09:35;;;;;;;9.05;2.63;;;;;;;17.73;100.00;100947.16;4933805;28;20507;-56
2023/07/05 11:12:04;;;;;;;13.15;2.80;;;;;;;17.99;100.00;100949.94;4924334;28;20135;-56
2023/07/05 11:14:29;;;;;;;13.88;2.30;;;;;;;17.71;100.00;100981.00;4923697;29;20027;-58
2023/07/05 11:16:56;;;;;;;13.18;2.53;;;;;;;17.60;100.00;100971.88;4918896;28;20440;-56